Time;durP1;ratioP1;P1;durP2;ratioP2;P2;SDS_P1;SDS_P2;PMS_P1;PMS_P2;Temp;Humidity;BMP_temperature;BMP_pressure;BME280_temperature;BME280_humidity;BME280_pressure;Samples;Min_cycle;Max_cycle;Signal;HPM_P1;HPM_P2
2022/09/09 00:01:54;;;;;;;3.33;1.48;;;;;;;14.01;93.85;100719.91;4865962;29;20102;-77
2022/09/09 00:04:32;;;;;;;1.80;1.42;;;;;;;14.01;93.59;100727.03;4858595;29;20031;-77
2022/09/09 00:07:33;;;;;;;4.72;1.90;;;;;;;13.94;93.35;100724.59;4858687;29;20044;-77
2022/09/09 00:10:31;;;;;;;2.92;1.50;;;;;;;13.93;94.05;100722.84;4850134;29;20037;-77
2022/09/09 00:13:16;;;;;;;2.53;1.40;;;;;;;13.89;93.39;100715.03;4854192;29;20040;-77
2022/09/09 00:16:01;;;;;;;1.65;1.33;;;;;;;13.83;93.06;100715.28;4862403;29;20049;-77
2022/09/09 00:18:38;;;;;;;2.85;1.40;;;;;;;13.83;93.59;100707.31;4867280;29;20064;-77
2022/09/09 00:21:15;;;;;;;3.45;1.67;;;;;;;13.87;93.52;100711.56;4863825;29;20041;-77
2022/09/09 00:23:52;;;;;;;4.10;1.80;;;;;;;13.82;94.46;100706.41;4864512;29;20056;-77
2022/09/09 00:26:35;;;;;;;2.65;1.83;;;;;;;13.77;94.11;100703.94;4875365;29;20069;-77
2022/09/09 00:29:10;;;;;;;5.53;1.70;;;;;;;13.73;93.83;100704.97;4863460;29;20041;-77
2022/09/09 00:31:39;;;;;;;3.10;1.63;;;;;;;13.73;94.20;100704.97;4845571;29;20124;-77
2022/09/09 00:34:18;;;;;;;6.18;1.85;;;;;;;13.73;93.06;100699.66;4858550;29;20400;-77
2022/09/09 00:36:45;;;;;;;3.17;1.75;;;;;;;13.71;93.63;100700.63;4850187;29;20044;-77
2022/09/09 00:39:36;;;;;;;2.58;1.75;;;;;;;13.71;93.42;100705.97;4864095;29;20037;-77
2022/09/09 00:42:15;;;;;;;2.42;1.63;;;;;;;13.65;93.75;100698.19;4854443;29;20065;-77
2022/09/09 00:45:13;;;;;;;3.45;1.70;;;;;;;13.65;93.73;100701.75;4862553;29;20029;-77
2022/09/09 00:47:45;;;;;;;7.18;1.73;;;;;;;13.64;94.00;100693.81;4872719;29;20048;-77
2022/09/09 00:50:40;;;;;;;4.25;1.58;;;;;;;13.64;93.85;100685.81;4863046;29;20044;-77
2022/09/09 00:53:37;;;;;;;2.22;1.48;;;;;;;13.62;94.33;100682.34;4863006;29;20045;-77
2022/09/09 00:56:08;;;;;;;3.15;1.80;;;;;;;13.58;94.19;100678.06;4851548;29;20041;-77
2022/09/09 00:58:34;;;;;;;3.55;1.50;;;;;;;13.58;94.26;100680.75;4869118;29;20041;-77
2022/09/09 01:01:11;;;;;;;3.25;1.50;;;;;;;13.57;94.33;100682.50;4809524;29;20030;-77
2022/09/09 01:03:45;;;;;;;2.78;1.67;;;;;;;13.53;94.28;100681.75;4849619;29;20033;-77
2022/09/09 01:06:29;;;;;;;2.92;1.48;;;;;;;13.55;94.28;100679.06;4851126;29;20073;-77
2022/09/09 01:08:57;;;;;;;4.05;1.52;;;;;;;13.51;92.71;100680.09;4845082;29;20036;-77
2022/09/09 01:11:26;;;;;;;3.40;1.55;;;;;;;13.52;93.68;100685.31;4856809;29;20502;-77
2022/09/09 01:14:02;;;;;;;3.92;1.83;;;;;;;13.53;93.11;100680.91;4859858;29;20121;-77
2022/09/09 01:16:32;;;;;;;2.92;1.60;;;;;;;13.53;92.92;100680.91;4856725;29;20648;-77
2022/09/09 01:18:59;;;;;;;5.40;1.70;;;;;;;13.52;93.39;100685.31;4863841;29;20079;-77
2022/09/09 01:21:46;;;;;;;3.67;1.60;;;;;;;13.54;93.65;100680.81;4848527;29;20479;-77
2022/09/09 01:24:31;;;;;;;5.22;2.00;;;;;;;13.52;93.43;100673.81;4861000;29;20124;-77
2022/09/09 01:27:15;;;;;;;5.57;1.65;;;;;;;13.50;93.63;100688.97;4876868;29;20033;-77
2022/09/09 01:29:41;;;;;;;4.82;1.70;;;;;;;13.49;94.95;100685.44;4860552;29;20045;-76
2022/09/09 01:32:58;;;;;;;4.47;1.65;;;;;;;13.49;95.06;100685.44;4860468;29;20045;-77
2022/09/09 01:35:41;;;;;;;3.45;1.60;;;;;;;13.47;94.83;100673.13;4854314;29;20053;-76
2022/09/09 01:38:07;;;;;;;5.47;1.70;;;;;;;13.43;94.48;100669.72;4845020;29;20121;-76
2022/09/09 01:40:34;;;;;;;4.50;1.60;;;;;;;13.43;94.02;100672.38;4865788;29;20457;-76
2022/09/09 01:43:00;;;;;;;3.65;1.60;;;;;;;13.43;94.94;100666.22;4867394;29;20037;-76
2022/09/09 01:45:26;;;;;;;6.22;1.92;;;;;;;13.41;94.13;100662.72;4866540;29;20101;-76
2022/09/09 01:47:56;;;;;;;5.45;2.10;;;;;;;13.41;94.29;100660.06;4875682;29;20040;-76
2022/09/09 01:50:38;;;;;;;4.13;1.70;;;;;;;13.39;93.56;100662.78;4847179;29;20615;-76
2022/09/09 01:53:04;;;;;;;8.23;1.90;;;;;;;13.38;93.90;100661.03;4844653;29;20057;-76
2022/09/09 01:55:38;;;;;;;5.70;1.80;;;;;;;13.40;95.57;100668.94;4858759;29;20072;-76
2022/09/09 01:58:26;;;;;;;3.67;1.75;;;;;;;13.39;95.26;100665.44;4862096;29;20037;-76
2022/09/09 02:01:26;;;;;;;3.22;1.73;;;;;;;13.40;95.09;100663.63;4850515;29;20518;-76
2022/09/09 02:03:55;;;;;;;6.32;1.70;;;;;;;13.38;94.60;100658.38;4843334;29;20124;-76
2022/09/09 02:06:30;;;;;;;7.57;1.90;;;;;;;13.36;95.41;100654.06;4859870;29;20036;-76
2022/09/09 02:09:06;;;;;;;7.93;1.75;;;;;;;13.34;95.39;100657.63;4859895;29;20044;-76
2022/09/09 02:11:33;;;;;;;4.75;2.00;;;;;;;13.32;95.13;100654.13;4859689;29;20363;-76
2022/09/09 02:14:09;;;;;;;5.97;1.75;;;;;;;13.32;95.13;100642.63;4866289;29;20026;-76
2022/09/09 02:16:55;;;;;;;7.25;2.20;;;;;;;13.34;96.42;100649.63;4859636;29;20041;-76
2022/09/09 02:19:35;;;;;;;8.38;2.20;;;;;;;13.33;96.63;100647.91;4871147;29;20032;-76
2022/09/09 02:22:07;;;;;;;6.13;2.42;;;;;;;13.32;95.99;100646.16;4847734;29;20053;-76
2022/09/09 02:24:36;;;;;;;9.52;2.20;;;;;;;13.30;96.12;100642.72;4860988;29;20044;-76
2022/09/09 02:27:17;;;;;;;3.47;1.52;;;;;;;13.28;95.51;100647.22;4859504;29;20065;-76
2022/09/09 02:29:45;;;;;;;4.32;2.08;;;;;;;13.27;95.60;100641.94;4844383;29;20075;-76
2022/09/09 02:32:19;;;;;;;5.45;2.20;;;;;;;13.28;95.99;100641.03;4864110;29;20052;-77
2022/09/09 02:34:51;;;;;;;6.55;1.90;;;;;;;13.28;95.48;100644.56;4850829;29;20029;-76
2022/09/09 02:37:20;;;;;;;5.85;1.88;;;;;;;13.26;95.91;100646.38;4872372;29;20072;-76
2022/09/09 02:39:48;;;;;;;5.03;2.28;;;;;;;13.27;95.89;100640.13;4859386;29;20185;-76
2022/09/09 02:42:18;;;;;;;4.70;1.90;;;;;;;13.24;95.80;100642.88;4863698;29;20044;-76
2022/09/09 02:44:44;;;;;;;10.00;2.67;;;;;;;13.23;95.50;100646.47;4869162;29;20072;-76
2022/09/09 02:47:21;;;;;;;5.90;2.05;;;;;;;13.23;96.28;100643.81;4872339;29;20390;-76
2022/09/09 02:50:03;;;;;;;7.13;2.47;;;;;;;13.25;96.71;100646.41;4859234;29;20072;-76
2022/09/09 02:52:34;;;;;;;4.82;2.03;;;;;;;13.21;96.47;100648.31;4858994;29;20065;-76
2022/09/09 02:55:07;;;;;;;6.30;2.20;;;;;;;13.22;96.69;100643.88;4848480;29;20034;-76
2022/09/09 02:57:34;;;;;;;3.38;2.28;;;;;;;13.19;97.08;100642.19;4857468;29;20038;-76
2022/09/09 03:00:01;;;;;;;6.80;2.38;;;;;;;13.18;96.67;100650.19;4858734;29;20037;-76
2022/09/09 03:02:30;;;;;;;6.65;2.13;;;;;;;13.19;96.38;100649.31;4844074;29;20041;-76
2022/09/09 03:05:01;;;;;;;;;;;;;;;13.25;95.08;100649.97;4877848;29;20029;-76
2022/09/09 03:07:28;;;;;;;5.75;2.53;;;;;;;13.21;96.46;100652.78;4877169;29;19919;-76
2022/09/09 03:09:54;;;;;;;7.82;2.20;;;;;;;13.20;95.67;100651.88;4861847;29;20128;-76
2022/09/09 03:12:22;;;;;;;7.68;2.28;;;;;;;13.22;95.59;100654.50;4852667;29;20037;-76
2022/09/09 03:14:48;;;;;;;7.47;2.40;;;;;;;13.21;96.36;100650.13;4845453;29;20033;-76
2022/09/09 03:17:13;;;;;;;6.47;2.03;;;;;;;13.21;96.92;100658.09;4878615;29;20049;-76
2022/09/09 03:19:45;;;;;;;7.70;2.38;;;;;;;13.21;96.82;100645.66;4848230;29;20117;-76
2022/09/09 03:22:13;;;;;;;5.45;2.22;;;;;;;13.19;96.80;100646.66;4856874;29;20045;-76
2022/09/09 03:24:41;;;;;;;9.35;2.55;;;;;;;13.20;97.33;100653.69;4858379;29;20038;-76
2022/09/09 03:27:06;;;;;;;10.15;2.22;;;;;;;13.19;97.88;100652.81;4871440;29;20041;-76
2022/09/09 03:29:34;;;;;;;7.60;2.50;;;;;;;13.20;97.16;100657.19;4862123;29;20151;-76
2022/09/09 03:32:02;;;;;;;10.07;2.60;;;;;;;13.19;97.80;100657.28;4839156;29;20033;-76
2022/09/09 03:34:27;;;;;;;7.13;2.60;;;;;;;13.18;97.93;100653.75;4834042;29;20065;-76
2022/09/09 03:36:53;;;;;;;6.35;2.88;;;;;;;13.17;98.06;100652.00;4860050;29;20080;-76
2022/09/09 03:39:18;;;;;;;6.47;2.70;;;;;;;13.17;98.01;100656.47;4869196;29;20033;-76
2022/09/09 03:41:47;;;;;;;5.50;2.28;;;;;;;13.16;97.40;100658.25;4858239;29;20064;-76
2022/09/09 03:44:13;;;;;;;6.18;2.20;;;;;;;13.18;97.67;100650.19;4869998;29;20434;-76
2022/09/09 03:46:40;;;;;;;8.48;2.58;;;;;;;13.19;98.31;100654.63;4842949;29;20077;-76
2022/09/09 03:49:06;;;;;;;9.57;2.47;;;;;;;13.18;98.48;100655.53;4870915;29;20072;-76
2022/09/09 03:51:31;;;;;;;8.90;2.17;;;;;;;13.15;97.44;100650.31;4842550;29;20521;-76
2022/09/09 03:53:58;;;;;;;4.95;2.10;;;;;;;13.17;97.78;100644.03;4827482;29;20068;-76
2022/09/09 03:56:25;;;;;;;6.80;2.20;;;;;;;13.16;97.94;100647.63;4866350;29;20446;-76
2022/09/09 03:58:52;;;;;;;7.63;2.25;;;;;;;13.16;98.59;100644.09;4872636;29;20362;-76
2022/09/09 04:01:18;;;;;;;5.43;2.33;;;;;;;13.17;97.96;100645.81;4858155;29;20045;-76
2022/09/09 04:03:45;;;;;;;6.07;2.40;;;;;;;13.17;98.84;100643.16;4857901;29;20447;-76
2022/09/09 04:06:13;;;;;;;5.72;2.50;;;;;;;13.16;98.48;100638.78;4858088;29;20045;-76
2022/09/09 04:08:39;;;;;;;8.35;1.98;;;;;;;13.17;99.12;100638.72;4849527;29;20111;-76
2022/09/09 04:11:06;;;;;;;5.45;1.90;;;;;;;13.15;98.87;100640.53;4851799;29;20034;-76
2022/09/09 04:13:40;;;;;;;9.20;2.40;;;;;;;13.16;99.22;100631.66;4850548;29;20032;-76
2022/09/09 04:16:11;;;;;;;6.55;2.45;;;;;;;13.15;98.83;100631.72;4864120;29;20033;-76
2022/09/09 04:18:37;;;;;;;12.15;2.20;;;;;;;13.18;99.52;100629.81;4854556;29;20045;-81
2022/09/09 04:21:04;;;;;;;7.45;2.50;;;;;;;13.17;99.19;100629.88;4855245;29;20088;-81
2022/09/09 04:23:31;;;;;;;11.75;2.28;;;;;;;13.15;98.21;100632.56;4856902;29;20109;-81
2022/09/09 04:25:58;;;;;;;9.82;2.33;;;;;;;13.18;98.91;100635.16;4858252;29;20041;-81
2022/09/09 04:28:29;;;;;;;7.40;2.30;;;;;;;13.16;99.37;100631.66;4872236;29;20173;-81
2022/09/09 04:30:56;;;;;;;9.73;2.00;;;;;;;13.19;99.14;100638.66;4865165;29;20042;-81
2022/09/09 04:33:26;;;;;;;7.97;2.55;;;;;;;13.19;99.40;100630.69;4857249;29;20728;-81
2022/09/09 04:35:53;;;;;;;9.90;2.58;;;;;;;13.20;99.75;100630.63;4857812;29;20057;-81
2022/09/09 04:38:22;;;;;;;6.57;2.40;;;;;;;13.22;100.00;100633.22;4877197;29;20040;-81
2022/09/09 04:40:51;;;;;;;10.77;2.47;;;;;;;13.23;99.86;100634.94;4864520;29;20042;-81
2022/09/09 04:43:18;;;;;;;12.30;2.60;;;;;;;13.24;100.00;100626.94;4841889;29;20068;-81
2022/09/09 04:45:48;;;;;;;5.90;2.28;;;;;;;13.24;99.81;100626.06;4851301;29;20083;-81
2022/09/09 04:48:14;;;;;;;8.32;2.58;;;;;;;13.26;100.00;100625.09;4861001;29;20046;-81
2022/09/09 04:50:40;;;;;;;4.95;2.15;;;;;;;13.25;100.00;100628.69;4859221;29;20045;-81
2022/09/09 04:53:07;;;;;;;9.65;2.55;;;;;;;13.26;100.00;100630.41;4872555;29;20034;-81
2022/09/09 04:55:35;;;;;;;12.40;3.70;;;;;;;13.26;100.00;100622.44;4859412;29;20370;-81
2022/09/09 04:58:06;;;;;;;6.22;2.25;;;;;;;13.27;99.94;100618.00;4872427;29;20037;-81
2022/09/09 05:00:32;;;;;;;8.23;2.30;;;;;;;13.27;100.00;100612.69;4866508;29;20045;-80
2022/09/09 05:02:57;;;;;;;9.82;2.33;;;;;;;13.28;99.72;100611.78;4857930;29;20405;-81
2022/09/09 05:05:25;;;;;;;13.25;2.95;;;;;;;13.28;100.00;100615.31;4853941;29;20489;-81
2022/09/09 05:07:51;;;;;;;6.38;2.45;;;;;;;13.28;99.53;100620.63;4849962;29;20405;-81
2022/09/09 05:10:17;;;;;;;9.50;2.47;;;;;;;13.28;99.43;100620.63;4860746;29;20026;-81
2022/09/09 05:12:52;;;;;;;9.55;2.53;;;;;;;13.32;100.00;100618.69;4873212;29;20128;-81
2022/09/09 05:15:18;;;;;;;6.75;2.00;;;;;;;13.32;100.00;100606.25;4848157;29;20030;-81
2022/09/09 05:17:44;;;;;;;10.05;2.50;;;;;;;13.36;100.00;100611.50;4872389;29;20081;-81
2022/09/09 05:20:09;;;;;;;11.43;2.50;;;;;;;13.37;100.00;100614.09;4850567;29;20925;-81
2022/09/09 05:22:35;;;;;;;9.70;2.30;;;;;;;13.38;100.00;100609.63;4847284;29;20151;-81
2022/09/09 05:25:02;;;;;;;11.48;2.85;;;;;;;13.41;100.00;100613.06;4854587;29;20124;-76
2022/09/09 05:27:27;;;;;;;5.75;2.28;;;;;;;13.41;100.00;100607.72;4874028;29;20128;-76
2022/09/09 05:29:53;;;;;;;17.30;2.97;;;;;;;13.44;100.00;100610.28;4845258;29;20074;-76
2022/09/09 05:32:18;;;;;;;8.20;2.53;;;;;;;13.45;100.00;100600.50;4876653;29;20108;-76
2022/09/09 05:34:47;;;;;;;10.40;2.53;;;;;;;13.49;100.00;100594.13;4879030;29;20041;-76
2022/09/09 05:37:13;;;;;;;12.43;2.70;;;;;;;13.51;100.00;100601.13;4864268;29;20531;-76
2022/09/09 05:39:39;;;;;;;12.18;2.67;;;;;;;13.53;100.00;100604.63;4848838;29;20446;-76
2022/09/09 05:42:05;;;;;;;6.45;2.25;;;;;;;13.55;100.00;100604.56;4845085;29;20041;-76
2022/09/09 05:44:32;;;;;;;10.20;2.45;;;;;;;13.57;100.00;100600.03;4822914;29;20029;-76
2022/09/09 05:46:58;;;;;;;12.15;3.00;;;;;;;13.58;100.00;100599.13;4852417;29;20105;-76
2022/09/09 05:49:25;;;;;;;9.93;2.78;;;;;;;13.61;100.00;100604.31;4844826;29;20503;-76
2022/09/09 05:51:50;;;;;;;8.50;2.20;;;;;;;13.62;100.00;100608.69;4869464;29;20097;-76
2022/09/09 05:54:17;;;;;;;9.20;1.98;;;;;;;13.69;100.00;100615.53;4865272;29;20034;-76
2022/09/09 05:56:49;;;;;;;10.18;2.00;;;;;;;13.74;100.00;100608.22;4870370;29;20045;-76
2022/09/09 05:59:15;;;;;;;7.25;2.40;;;;;;;13.82;100.00;100615.06;4841910;29;20042;-76
2022/09/09 06:01:41;;;;;;;12.13;2.75;;;;;;;13.88;100.00;100620.16;4850457;29;20045;-76
2022/09/09 06:04:10;;;;;;;6.13;2.20;;;;;;;13.93;100.00;100620.84;4856776;29;20269;-76
2022/09/09 06:06:39;;;;;;;6.70;2.42;;;;;;;13.97;100.00;100630.41;4856905;29;20120;-76
2022/09/09 06:09:11;;;;;;;8.82;2.72;;;;;;;14.01;100.00;100617.88;4871179;29;20037;-76
2022/09/09 06:11:40;;;;;;;12.40;2.22;;;;;;;14.06;100.00;100629.19;4864321;29;20072;-76
2022/09/09 06:14:06;;;;;;;10.48;2.33;;;;;;;14.10;100.00;100625.50;4868644;29;20112;-76
2022/09/09 06:16:33;;;;;;;13.60;2.53;;;;;;;14.15;100.00;100624.38;4861980;29;20141;-76
2022/09/09 06:19:00;;;;;;;8.88;2.30;;;;;;;14.23;100.00;100628.53;4878227;29;20045;-76
2022/09/09 06:21:37;;;;;;;10.38;2.55;;;;;;;14.29;100.00;100630.94;4862819;29;20080;-76
2022/09/09 06:24:07;;;;;;;13.05;2.60;;;;;;;14.33;100.00;100630.75;4842472;29;20033;-76
2022/09/09 06:26:35;;;;;;;7.78;2.22;;;;;;;14.37;99.53;100632.38;4877373;29;20186;-76
2022/09/09 06:29:06;;;;;;;9.23;2.55;;;;;;;14.45;100.00;100631.19;4866651;29;20116;-76
2022/09/09 06:31:34;;;;;;;10.70;2.20;;;;;;;14.51;100.00;100622.94;4879372;29;20057;-76
2022/09/09 06:34:07;;;;;;;15.60;2.90;;;;;;;14.54;99.40;100615.72;4862910;29;20034;-76
2022/09/09 06:36:36;;;;;;;10.60;2.40;;;;;;;14.57;99.63;100625.38;4871852;29;20093;-76
2022/09/09 06:39:03;;;;;;;11.18;3.35;;;;;;;14.59;99.87;100629.72;4864804;29;20068;-76
2022/09/09 06:41:31;;;;;;;12.80;2.83;;;;;;;14.58;99.04;100624.44;4845503;29;20041;-76
2022/09/09 06:43:57;;;;;;;9.02;2.30;;;;;;;14.57;97.64;100622.72;4844010;29;20021;-76
2022/09/09 06:46:32;;;;;;;13.18;3.40;;;;;;;14.63;98.61;100623.31;4855457;29;20043;-76
2022/09/09 06:48:59;;;;;;;13.45;2.08;;;;;;;14.70;97.35;100621.25;4874296;29;20041;-76
2022/09/09 06:51:31;;;;;;;14.60;2.47;;;;;;;14.77;98.03;100620.06;4852738;29;20493;-76
2022/09/09 06:53:58;;;;;;;15.48;2.42;;;;;;;14.80;96.77;100621.75;4872706;29;20200;-76
2022/09/09 06:56:27;;;;;;;11.07;2.47;;;;;;;14.80;96.73;100622.59;4867348;29;20128;-77
2022/09/09 06:58:58;;;;;;;10.50;2.67;;;;;;;14.83;96.75;100618.94;4868024;29;20521;-76
2022/09/09 07:01:30;;;;;;;10.95;2.22;;;;;;;14.93;96.98;100622.06;4856573;29;20044;-76
2022/09/09 07:03:59;;;;;;;10.45;2.40;;;;;;;15.04;96.46;100625.16;4877587;29;20084;-76
2022/09/09 07:06:26;;;;;;;12.02;2.65;;;;;;;15.11;95.79;100629.28;4874368;29;20057;-76
2022/09/09 07:08:58;;;;;;;12.38;2.47;;;;;;;15.21;95.99;100619.06;4874424;29;20093;-76
2022/09/09 07:11:29;;;;;;;18.58;2.70;;;;;;;15.31;95.58;100622.19;4874213;29;20466;-76
2022/09/09 07:13:57;;;;;;;13.45;2.72;;;;;;;15.32;93.90;100623.91;4837213;29;20041;-76
2022/09/09 07:16:24;;;;;;;11.65;2.72;;;;;;;15.32;94.15;100624.78;4856821;29;20069;-76
2022/09/09 07:18:50;;;;;;;10.82;2.38;;;;;;;15.32;94.01;100621.25;4849341;29;20041;-76
2022/09/09 07:21:17;;;;;;;9.13;2.72;;;;;;;15.32;92.29;100624.78;4857311;29;20148;-76
2022/09/09 07:23:43;;;;;;;15.02;2.50;;;;;;;15.35;93.16;100623.78;4865815;29;20041;-76
2022/09/09 07:26:16;;;;;;;10.00;2.20;;;;;;;15.35;92.53;100611.28;4855690;29;20142;-76
2022/09/09 07:28:42;;;;;;;9.15;2.90;;;;;;;15.38;92.49;100615.63;4851135;29;20033;-76
2022/09/09 07:31:17;;;;;;;12.15;2.72;;;;;;;15.49;91.83;100605.34;4867354;29;20124;-76
2022/09/09 07:33:44;;;;;;;7.65;1.88;;;;;;;15.59;94.13;100613.78;4859504;29;20495;-76
2022/09/09 07:36:13;;;;;;;19.85;2.75;;;;;;;15.64;91.28;100604.63;4859914;29;20151;-76
2022/09/09 07:38:45;;;;;;;12.75;2.95;;;;;;;15.66;90.39;100605.44;4873563;29;20093;-76
2022/09/09 07:41:17;;;;;;;10.82;2.78;;;;;;;15.64;90.14;100607.28;4858501;29;20045;-76
2022/09/09 07:43:45;;;;;;;10.40;2.78;;;;;;;15.59;89.48;100617.31;4871431;29;20080;-77
2022/09/09 07:46:13;;;;;;;13.60;2.47;;;;;;;15.52;90.52;100612.34;4866546;29;20029;-77
2022/09/09 07:48:44;;;;;;;12.35;2.63;;;;;;;15.54;90.00;100615.81;4877230;29;20040;-77
2022/09/09 07:51:19;;;;;;;10.50;2.47;;;;;;;15.51;89.19;100618.63;4850244;29;20128;-78
2022/09/09 07:53:46;;;;;;;14.55;3.20;;;;;;;15.55;89.72;100620.19;4833543;29;20041;-77
2022/09/09 07:56:14;;;;;;;10.38;2.20;;;;;;;15.63;90.17;100626.94;4870520;29;20040;-77
2022/09/09 07:58:40;;;;;;;17.75;2.90;;;;;;;15.64;88.95;100619.78;4867094;29;20120;-77
2022/09/09 08:01:17;;;;;;;8.10;1.98;;;;;;;15.67;89.95;100623.16;4850008;29;20064;-77
2022/09/09 08:03:45;;;;;;;14.27;3.47;;;;;;;15.74;89.77;100623.78;4861572;29;20105;-77
2022/09/09 08:06:13;;;;;;;14.63;2.47;;;;;;;15.81;89.86;100617.22;4864985;29;20032;-77
2022/09/09 08:08:41;;;;;;;11.20;2.80;;;;;;;15.86;88.39;100620.53;4854165;29;20065;-78
2022/09/09 08:11:14;;;;;;;10.32;2.47;;;;;;;15.90;88.53;100614.13;4854849;29;20063;-77
2022/09/09 08:13:41;;;;;;;11.80;2.50;;;;;;;15.92;87.61;100616.69;4852178;29;20056;-78
2022/09/09 08:16:14;;;;;;;10.68;2.90;;;;;;;15.94;88.18;100619.31;4876414;29;20041;-77
2022/09/09 08:18:41;;;;;;;10.98;3.20;;;;;;;15.96;88.97;100623.63;4876178;29;20041;-77
2022/09/09 08:21:08;;;;;;;11.80;2.38;;;;;;;15.95;88.54;100629.94;4875035;29;20041;-78
2022/09/09 08:23:34;;;;;;;8.10;2.50;;;;;;;15.93;87.86;100621.13;4857165;29;20041;-78
2022/09/09 08:26:15;;;;;;;11.05;2.30;;;;;;;16.00;88.92;100627.91;4857754;29;20065;-77
2022/09/09 08:28:42;;;;;;;8.15;2.30;;;;;;;16.07;88.03;100628.44;4842078;29;20040;-78
2022/09/09 08:31:14;;;;;;;13.23;2.70;;;;;;;16.15;87.36;100625.41;4860936;29;20069;-78
2022/09/09 08:33:42;;;;;;;13.80;3.13;;;;;;;16.20;86.56;100634.09;4874498;29;20037;-78
2022/09/09 08:36:10;;;;;;;10.00;2.78;;;;;;;16.29;88.17;100628.28;4862991;29;20056;-78
2022/09/09 08:38:37;;;;;;;11.02;2.28;;;;;;;16.37;86.71;100631.47;4875583;29;20041;-77
2022/09/09 08:41:35;;;;;;;10.27;2.40;;;;;;;16.38;84.63;100627.84;4861698;29;20381;-78
2022/09/09 08:44:34;;;;;;;10.93;2.35;;;;;;;16.35;83.95;100628.00;4860698;29;20033;-77
2022/09/09 08:47:39;;;;;;;8.82;2.22;;;;;;;16.44;85.66;100637.34;4828305;29;20054;-77
2022/09/09 08:50:21;;;;;;;8.30;2.40;;;;;;;16.46;84.36;100638.16;4864507;29;20033;-78
2022/09/09 08:53:08;;;;;;;9.45;2.42;;;;;;;16.48;84.20;100644.28;4849227;29;20442;-77
2022/09/09 08:55:51;;;;;;;8.57;2.10;;;;;;;16.47;83.93;100640.75;4861096;29;20068;-77
2022/09/09 08:58:24;;;;;;;10.63;2.30;;;;;;;16.45;84.44;100639.09;4860956;29;20083;-78
2022/09/09 09:01:22;;;;;;;11.10;2.70;;;;;;;16.47;85.76;100640.75;4854386;29;20034;-78
2022/09/09 09:04:22;;;;;;;11.13;2.83;;;;;;;16.45;83.13;100653.31;4838594;29;20045;-77
2022/09/09 09:07:21;;;;;;;7.40;2.10;;;;;;;16.41;83.49;100654.41;4870131;29;20037;-78
2022/09/09 09:10:13;;;;;;;12.77;2.22;;;;;;;16.38;83.91;100656.38;4848412;29;20056;-77
2022/09/09 09:12:42;;;;;;;7.68;1.77;;;;;;;16.45;83.29;100653.31;4872674;29;20081;-78
2022/09/09 09:15:22;;;;;;;9.82;2.47;;;;;;;16.50;82.97;100661.97;4879393;29;20029;-77
2022/09/09 09:17:50;;;;;;;6.80;2.10;;;;;;;16.51;81.69;100646.81;4867217;29;20045;-77
2022/09/09 09:20:18;;;;;;;10.32;2.13;;;;;;;16.50;81.85;100656.63;4860659;29;20040;-77
2022/09/09 09:22:50;;;;;;;9.85;2.30;;;;;;;16.53;81.18;100661.81;4861429;29;20510;-77
2022/09/09 09:25:21;;;;;;;12.00;2.63;;;;;;;16.51;81.50;100655.69;4849568;29;20037;-77
2022/09/09 09:28:10;;;;;;;14.93;2.60;;;;;;;16.53;80.92;100658.28;4869089;29;20150;-77
2022/09/09 09:30:47;;;;;;;10.90;2.00;;;;;;;16.55;81.96;100664.44;4873120;29;20651;-77
2022/09/09 09:33:28;;;;;;;8.82;2.13;;;;;;;16.57;81.59;100659.88;4860287;29;20618;-76
2022/09/09 09:35:55;;;;;;;12.82;2.65;;;;;;;16.61;79.80;100660.56;4849836;29;20059;-77
2022/09/09 09:38:24;;;;;;;13.30;2.95;;;;;;;16.59;80.50;100665.97;4845030;29;20041;-77
2022/09/09 09:40:57;;;;;;;9.80;2.15;;;;;;;16.51;79.75;100660.16;4866760;29;20025;-77
2022/09/09 09:43:32;;;;;;;10.10;2.00;;;;;;;16.50;81.82;100661.97;4863098;29;20045;-76
2022/09/09 09:46:04;;;;;;;11.32;2.92;;;;;;;16.54;81.56;100666.25;4848784;29;20294;-76
2022/09/09 09:48:30;;;;;;;9.90;2.22;;;;;;;16.60;80.70;100658.84;4860214;29;20075;-76
2022/09/09 09:51:04;;;;;;;10.23;2.22;;;;;;;16.65;81.92;100659.50;4873510;29;20168;-75
2022/09/09 09:53:33;;;;;;;10.98;2.20;;;;;;;16.66;81.55;100664.75;4870586;29;20037;-76
2022/09/09 09:56:09;;;;;;;10.95;2.53;;;;;;;16.66;80.69;100661.22;4875749;29;20036;-76
2022/09/09 09:58:44;;;;;;;12.38;2.70;;;;;;;16.63;81.98;100656.88;4887263;29;20043;-76
2022/09/09 10:01:33;;;;;;;9.57;2.72;;;;;;;16.61;82.55;100652.56;4868858;29;20379;-76
2022/09/09 10:04:01;;;;;;;10.10;2.38;;;;;;;16.65;83.35;100655.00;4868149;29;20120;-76
2022/09/09 10:06:33;;;;;;;8.70;2.22;;;;;;;16.67;82.61;100652.25;4860010;29;20195;-76
2022/09/09 10:08:59;;;;;;;9.90;2.40;;;;;;;16.63;82.78;100654.22;4861484;29;20370;-76
2022/09/09 10:11:32;;;;;;;11.00;2.78;;;;;;;16.57;84.49;100657.22;4866782;29;20045;-75
2022/09/09 10:14:04;;;;;;;12.13;2.50;;;;;;;16.54;85.31;100670.69;4878583;29;20033;-74
2022/09/09 10:16:52;;;;;;;8.93;2.05;;;;;;;16.43;84.68;100670.38;4864553;29;20097;-75
2022/09/09 10:19:36;;;;;;;12.07;2.35;;;;;;;16.37;86.72;100671.56;4861089;29;20045;-75
2022/09/09 10:22:07;;;;;;;10.75;2.70;;;;;;;16.32;87.57;100665.56;4868467;29;20470;-74
2022/09/09 10:24:52;;;;;;;13.20;2.47;;;;;;;16.26;87.85;100679.22;4871272;29;20092;-73
2022/09/09 10:27:44;;;;;;;7.50;2.05;;;;;;;16.20;89.33;100669.69;4848973;29;20337;-75
2022/09/09 10:30:18;;;;;;;15.25;2.63;;;;;;;16.20;89.69;100675.03;4860826;29;20093;-73
2022/09/09 10:33:05;;;;;;;12.05;2.58;;;;;;;16.23;90.13;100668.66;4861066;29;20485;-73
2022/09/09 10:35:34;;;;;;;12.65;2.20;;;;;;;16.21;91.56;100674.06;4860714;29;20033;-74
2022/09/09 10:38:14;;;;;;;13.70;3.15;;;;;;;16.25;90.56;100667.66;4871186;29;20068;-74
2022/09/09 10:40:55;;;;;;;9.43;2.47;;;;;;;16.31;90.04;100671.84;4867629;29;20042;-74
2022/09/09 10:43:46;;;;;;;9.63;2.58;;;;;;;16.31;91.20;100670.03;4871809;29;20059;-74
2022/09/09 10:46:35;;;;;;;7.18;2.15;;;;;;;16.33;89.88;100668.16;4858433;29;20040;-74
2022/09/09 10:49:35;;;;;;;5.93;1.77;;;;;;;16.37;89.22;100670.66;4866193;29;20058;-75
2022/09/09 10:52:21;;;;;;;9.60;2.50;;;;;;;16.34;89.80;100666.31;4865963;29;20037;-74
2022/09/09 10:55:01;;;;;;;9.85;2.55;;;;;;;16.35;89.86;100662.75;4859322;29;20037;-74
2022/09/09 10:57:34;;;;;;;8.45;2.15;;;;;;;16.35;89.64;100676.09;4873720;29;20112;-74
2022/09/09 11:00:06;;;;;;;9.13;2.05;;;;;;;16.40;89.33;100670.53;4857900;29;20098;-74
2022/09/09 11:02:34;;;;;;;6.22;2.10;;;;;;;16.46;88.18;100668.41;4854175;29;20550;-75
2022/09/09 11:05:05;;;;;;;10.50;2.20;;;;;;;16.49;88.57;100660.25;4874775;29;20139;-74
2022/09/09 11:07:45;;;;;;;10.57;2.25;;;;;;;16.49;89.03;100662.94;4859373;29;20469;-75
2022/09/09 11:10:43;;;;;;;9.15;2.10;;;;;;;16.48;89.62;100679.88;4859290;29;20033;-74
2022/09/09 11:13:25;;;;;;;10.18;2.30;;;;;;;16.48;89.00;100663.00;4862605;29;20063;-75
2022/09/09 11:15:58;;;;;;;7.63;2.40;;;;;;;16.51;90.18;100661.03;4868954;29;20069;-74
2022/09/09 11:18:23;;;;;;;6.80;2.05;;;;;;;16.62;90.85;100663.19;4858707;29;20036;-74
2022/09/09 11:20:55;;;;;;;8.45;2.28;;;;;;;16.69;91.08;100667.28;4869270;29;20135;-74
2022/09/09 11:23:56;;;;;;;8.65;1.95;;;;;;;16.74;88.31;100672.38;4859112;29;20509;-74
2022/09/09 11:26:33;;;;;;;9.50;2.30;;;;;;;16.70;88.84;100663.66;4872193;29;20061;-74
2022/09/09 11:29:14;;;;;;;10.75;2.65;;;;;;;16.76;89.50;100662.47;4861577;29;20130;-73
2022/09/09 11:32:05;;;;;;;9.02;2.45;;;;;;;16.81;90.34;100665.81;4860804;29;20044;-74
2022/09/09 11:34:53;;;;;;;8.15;2.60;;;;;;;16.85;90.01;100670.06;4868611;29;20041;-74
2022/09/09 11:37:19;;;;;;;15.80;2.28;;;;;;;16.81;88.77;100656.94;4872789;29;20080;-74
2022/09/09 11:39:58;;;;;;;6.88;2.15;;;;;;;16.73;87.52;100663.50;4858648;29;20097;-74
2022/09/09 11:42:24;;;;;;;8.73;2.50;;;;;;;16.63;89.90;100659.56;4858465;29;20037;-74
2022/09/09 11:44:51;;;;;;;7.78;2.40;;;;;;;16.66;90.17;100664.75;4870388;29;20028;-75
2022/09/09 11:47:31;;;;;;;8.38;2.30;;;;;;;16.65;89.51;100659.50;4861931;29;20080;-74
2022/09/09 11:50:14;;;;;;;6.03;2.25;;;;;;;16.64;89.08;100661.31;4859877;29;20034;-75